Time;durP1;ratioP1;P1;durP2;ratioP2;P2;SDS_P1;SDS_P2;PMS_P1;PMS_P2;Temp;Humidity;BMP_temperature;BMP_pressure;BME280_temperature;BME280_humidity;BME280_pressure;Samples;Min_cycle;Max_cycle;Signal;HPM_P1;HPM_P2
2022/03/28 00:01:41;;;;;;;0.30;0.20;;;5.60;99.90;;;;;;5066796;28;20895;-84
2022/03/28 00:04:08;;;;;;;0.40;0.20;;;5.50;99.90;;;;;;5060499;28;20549;-84
2022/03/28 00:06:35;;;;;;;0.53;0.50;;;5.40;99.90;;;;;;5055219;28;20817;-84
2022/03/28 00:09:05;;;;;;;0.40;0.30;;;5.40;99.90;;;;;;5059268;28;20574;-84
2022/03/28 00:11:32;;;;;;;1.10;1.10;;;5.30;99.90;;;;;;5057211;28;20485;-85
2022/03/28 00:13:59;;;;;;;0.30;0.20;;;5.20;99.90;;;;;;5050416;28;20537;-85
2022/03/28 00:16:26;;;;;;;0.30;0.20;;;5.00;99.90;;;;;;5055501;28;20469;-84
2022/03/28 00:18:54;;;;;;;0.30;0.20;;;4.90;99.90;;;;;;5062970;28;20517;-85
2022/03/28 00:21:21;;;;;;;2.33;0.70;;;4.90;99.90;;;;;;5060055;28;20467;-85
2022/03/28 00:23:48;;;;;;;0.40;0.20;;;5.00;99.90;;;;;;5060724;28;20466;-87
2022/03/28 00:26:15;;;;;;;0.30;0.10;;;5.00;99.90;;;;;;5059973;28;20464;-86
2022/03/28 00:28:42;;;;;;;0.30;0.10;;;5.00;99.90;;;;;;5061504;28;20505;-84
2022/03/28 00:31:09;;;;;;;0.30;0.10;;;4.90;99.90;;;;;;5059059;28;20475;-84
2022/03/28 00:33:36;;;;;;;0.40;0.40;;;5.00;99.90;;;;;;5056824;28;20456;-88
2022/03/28 00:36:05;;;;;;;1.13;1.03;;;5.00;99.90;;;;;;5062232;28;20448;-84
2022/03/28 00:38:32;;;;;;;0.50;0.50;;;5.10;99.90;;;;;;5063507;28;20456;-85
2022/03/28 00:40:59;;;;;;;0.30;0.10;;;5.10;99.90;;;;;;5059307;28;20461;-86
2022/03/28 00:43:28;;;;;;;0.70;0.70;;;5.20;99.90;;;;;;5055141;28;20559;-88
2022/03/28 00:45:55;;;;;;;0.30;0.20;;;5.20;99.90;;;;;;5053831;28;20449;-87
2022/03/28 00:48:22;;;;;;;0.30;0.20;;;5.10;99.90;;;;;;5059463;28;20463;-86
2022/03/28 00:50:49;;;;;;;0.30;0.20;;;5.10;99.90;;;;;;5053895;28;20518;-87
2022/03/28 00:53:19;;;;;;;0.30;0.20;;;5.00;99.90;;;;;;5057317;28;20509;-89
2022/03/28 00:55:46;;;;;;;0.50;0.50;;;5.00;99.90;;;;;;5057967;28;20448;-84
2022/03/28 00:58:13;;;;;;;0.30;0.10;;;5.00;99.90;;;;;;5062452;28;21029;-85
2022/03/28 01:00:40;;;;;;;0.30;0.13;;;4.90;99.90;;;;;;5054609;28;20970;-84
2022/03/28 01:03:07;;;;;;;1.50;1.50;;;4.90;99.90;;;;;;5052595;28;20979;-87
2022/03/28 01:05:34;;;;;;;0.30;0.20;;;4.80;99.90;;;;;;5066078;28;20597;-87
2022/03/28 01:08:01;;;;;;;0.70;0.50;;;4.80;99.90;;;;;;5059961;28;21019;-84
2022/03/28 01:10:30;;;;;;;0.30;0.20;;;4.80;99.90;;;;;;5053604;28;20994;-85
2022/03/28 01:13:01;;;;;;;0.40;0.37;;;4.80;99.90;;;;;;5054102;28;20517;-87
2022/03/28 01:15:28;;;;;;;0.40;0.30;;;4.80;99.90;;;;;;5049125;28;20993;-85
2022/03/28 01:18:06;;;;;;;0.30;0.10;;;4.70;99.90;;;;;;5072196;28;20509;-84
2022/03/28 01:20:35;;;;;;;0.30;0.20;;;4.70;99.90;;;;;;5069985;28;20463;-84
2022/03/28 01:23:04;;;;;;;0.43;0.40;;;4.70;99.90;;;;;;5060930;28;21022;-84
2022/03/28 01:25:31;;;;;;;0.93;0.93;;;4.60;99.90;;;;;;5054287;28;20449;-83
2022/03/28 01:28:00;;;;;;;0.30;0.20;;;4.60;99.90;;;;;;5055524;28;20544;-84
2022/03/28 01:30:28;;;;;;;0.30;0.10;;;4.60;99.90;;;;;;5068940;28;20443;-84
2022/03/28 01:32:57;;;;;;;0.30;0.20;;;4.50;99.90;;;;;;5057421;28;20484;-83
2022/03/28 01:35:28;;;;;;;0.30;0.20;;;4.60;99.90;;;;;;5065162;28;20445;-84
2022/03/28 01:37:56;;;;;;;0.33;0.23;;;4.50;99.90;;;;;;5066874;28;20865;-84
2022/03/28 01:40:25;;;;;;;0.87;0.87;;;4.50;99.90;;;;;;5066399;28;20494;-84
2022/03/28 01:42:52;;;;;;;0.30;0.20;;;4.40;99.90;;;;;;5058268;28;20522;-84
2022/03/28 01:45:19;;;;;;;0.40;0.33;;;4.20;99.90;;;;;;5058516;28;20507;-87
2022/03/28 01:47:46;;;;;;;0.80;0.80;;;4.20;99.90;;;;;;5063941;28;21751;-87
2022/03/28 01:50:14;;;;;;;0.30;0.10;;;4.00;99.90;;;;;;5063007;28;20543;-85
2022/03/28 01:52:41;;;;;;;0.50;0.40;;;4.00;99.90;;;;;;5061127;28;20550;-84
2022/03/28 01:55:10;;;;;;;0.50;0.30;;;3.90;99.90;;;;;;5057423;28;20456;-88
2022/03/28 01:57:39;;;;;;;1.63;1.53;;;3.90;99.90;;;;;;5064172;28;20550;-85
2022/03/28 02:00:08;;;;;;;1.00;0.70;;;4.00;99.90;;;;;;5061502;28;20449;-87
2022/03/28 02:02:35;;;;;;;0.40;0.30;;;4.10;99.90;;;;;;5057353;28;21033;-85
2022/03/28 02:05:02;;;;;;;0.30;0.10;;;4.10;99.90;;;;;;5060870;28;20461;-83
2022/03/28 02:07:29;;;;;;;0.73;0.30;;;4.10;99.90;;;;;;5062864;28;20510;-84
2022/03/28 02:09:56;;;;;;;0.47;0.30;;;4.20;99.90;;;;;;5060910;28;20932;-84
2022/03/28 02:12:23;;;;;;;0.30;0.20;;;4.20;99.90;;;;;;5065083;28;20967;-86
2022/03/28 02:14:51;;;;;;;0.60;0.60;;;4.30;99.90;;;;;;5058601;28;20472;-84
2022/03/28 02:17:18;;;;;;;0.30;0.10;;;4.20;99.90;;;;;;5066058;28;20501;-85
2022/03/28 02:19:45;;;;;;;0.40;0.37;;;4.10;99.90;;;;;;5061452;28;20532;-84
2022/03/28 02:22:12;;;;;;;0.30;0.20;;;4.10;99.90;;;;;;5059551;28;20819;-84
2022/03/28 02:24:39;;;;;;;0.80;0.27;;;4.00;99.90;;;;;;5050614;28;20471;-86
2022/03/28 02:27:07;;;;;;;0.30;0.10;;;4.20;99.90;;;;;;5058919;28;20551;-85
2022/03/28 02:29:34;;;;;;;0.30;0.20;;;4.20;99.90;;;;;;5062075;28;20468;-84
2022/03/28 02:32:03;;;;;;;0.30;0.20;;;4.10;99.90;;;;;;5060778;28;21017;-84
2022/03/28 02:34:30;;;;;;;0.30;0.10;;;4.00;99.90;;;;;;5054664;28;20930;-86
2022/03/28 02:36:57;;;;;;;2.27;2.07;;;3.90;99.90;;;;;;5058412;28;20466;-87
2022/03/28 02:39:25;;;;;;;0.30;0.10;;;3.80;99.90;;;;;;5060635;28;20505;-84
2022/03/28 02:41:52;;;;;;;0.30;0.10;;;3.80;99.90;;;;;;5067764;28;20452;-87
2022/03/28 02:44:19;;;;;;;0.30;0.10;;;3.70;99.90;;;;;;5057792;28;20462;-84
2022/03/28 02:46:46;;;;;;;0.30;0.20;;;3.60;99.90;;;;;;5054611;28;20928;-84
2022/03/28 02:49:15;;;;;;;0.30;0.20;;;3.60;99.90;;;;;;5062691;28;20448;-85
2022/03/28 02:51:43;;;;;;;0.30;0.20;;;3.50;99.90;;;;;;5068688;28;20940;-87
2022/03/28 02:54:10;;;;;;;0.47;0.47;;;3.50;99.90;;;;;;5053120;28;20848;-84
2022/03/28 02:56:37;;;;;;;0.30;0.10;;;3.50;99.90;;;;;;5063008;28;20461;-84
2022/03/28 02:59:04;;;;;;;0.30;0.20;;;3.50;99.90;;;;;;5062734;28;20460;-84
2022/03/28 03:01:31;;;;;;;0.30;0.10;;;3.60;99.90;;;;;;5064642;28;20463;-84
2022/03/28 03:03:58;;;;;;;0.30;0.10;;;3.60;99.90;;;;;;5061653;28;20453;-84
2022/03/28 03:06:27;;;;;;;0.30;0.10;;;3.60;99.90;;;;;;5063895;28;20493;-85
2022/03/28 03:08:54;;;;;;;0.40;0.30;;;3.60;99.90;;;;;;5064316;28;20456;-84
2022/03/28 03:11:21;;;;;;;0.40;0.20;;;3.60;99.90;;;;;;5063438;28;20453;-84
2022/03/28 03:13:49;;;;;;;0.30;0.10;;;3.60;99.90;;;;;;5058991;28;20931;-85
2022/03/28 03:16:16;;;;;;;0.30;0.10;;;3.50;99.90;;;;;;5061791;28;20596;-84
2022/03/28 03:18:43;;;;;;;0.30;0.20;;;3.50;99.90;;;;;;5049067;28;21170;-85
2022/03/28 03:21:10;;;;;;;0.30;0.10;;;3.50;99.90;;;;;;5054314;28;20453;-84
2022/03/28 03:23:38;;;;;;;0.30;0.10;;;3.40;99.90;;;;;;5061437;28;20451;-86
2022/03/28 03:26:06;;;;;;;0.30;0.10;;;3.30;99.90;;;;;;5058944;28;20456;-84
2022/03/28 03:28:32;;;;;;;0.57;0.57;;;3.50;99.90;;;;;;5059847;28;20522;-85
2022/03/28 03:30:59;;;;;;;0.40;0.30;;;3.60;99.90;;;;;;5065998;28;20501;-85
2022/03/28 03:33:26;;;;;;;0.30;0.10;;;3.60;99.90;;;;;;5055991;28;20496;-85
2022/03/28 03:35:54;;;;;;;0.30;0.20;;;3.50;99.90;;;;;;5054305;28;20492;-83
2022/03/28 03:38:21;;;;;;;0.30;0.10;;;3.40;99.90;;;;;;5060169;28;20452;-86
2022/03/28 03:40:50;;;;;;;0.30;0.20;;;3.30;99.90;;;;;;5061855;28;20440;-83
2022/03/28 03:43:16;;;;;;;0.30;0.20;;;3.40;99.90;;;;;;5061733;28;20451;-84
2022/03/28 03:45:43;;;;;;;0.30;0.20;;;3.70;99.90;;;;;;5056712;28;20835;-84
2022/03/28 03:48:10;;;;;;;0.30;0.20;;;3.80;99.90;;;;;;5053668;28;20453;-84
2022/03/28 03:50:37;;;;;;;0.30;0.10;;;4.00;99.90;;;;;;5065384;28;20975;-83
2022/03/28 03:53:04;;;;;;;0.30;0.10;;;4.00;99.90;;;;;;5059773;28;20488;-83
2022/03/28 03:55:31;;;;;;;0.30;0.10;;;4.00;99.90;;;;;;5061130;28;20469;-87
2022/03/28 03:58:00;;;;;;;0.40;0.40;;;3.90;99.90;;;;;;5054471;28;20461;-85
2022/03/28 04:00:27;;;;;;;0.80;0.80;;;3.90;99.90;;;;;;5061876;28;20513;-84
2022/03/28 04:02:53;;;;;;;0.40;0.30;;;3.90;99.90;;;;;;5058312;28;20520;-86
2022/03/28 04:05:20;;;;;;;0.30;0.20;;;3.90;99.90;;;;;;5050526;28;21048;-86
2022/03/28 04:07:47;;;;;;;0.30;0.10;;;4.00;99.90;;;;;;5062802;28;20448;-84
2022/03/28 04:10:14;;;;;;;0.37;0.27;;;3.90;99.90;;;;;;5061301;28;20986;-87
2022/03/28 04:12:41;;;;;;;0.40;0.30;;;3.90;99.90;;;;;;5063865;28;20471;-85
2022/03/28 04:15:10;;;;;;;0.30;0.10;;;3.80;99.90;;;;;;5061657;28;20589;-84
2022/03/28 04:17:42;;;;;;;0.60;0.60;;;3.70;99.90;;;;;;5061758;28;20522;-83
2022/03/28 04:20:10;;;;;;;0.40;0.30;;;3.70;99.90;;;;;;5058502;28;20555;-86
2022/03/28 04:22:39;;;;;;;0.30;0.10;;;3.70;99.90;;;;;;5055020;28;20478;-83
2022/03/28 04:25:08;;;;;;;0.30;0.10;;;3.70;99.90;;;;;;5062386;28;20463;-86
2022/03/28 04:27:35;;;;;;;0.30;0.10;;;3.70;99.90;;;;;;5062795;28;20506;-84
2022/03/28 04:30:03;;;;;;;0.30;0.10;;;3.70;99.90;;;;;;5074692;28;20499;-84
2022/03/28 04:32:32;;;;;;;0.77;0.77;;;3.70;99.90;;;;;;5056400;28;20932;-84
2022/03/28 04:34:59;;;;;;;0.30;0.10;;;3.70;99.90;;;;;;5054181;28;20482;-87
2022/03/28 04:37:26;;;;;;;0.30;0.30;;;3.70;99.90;;;;;;5053040;28;20452;-84
2022/03/28 04:39:53;;;;;;;0.30;0.20;;;3.60;99.90;;;;;;5057405;28;20463;-84
2022/03/28 04:42:20;;;;;;;0.30;0.10;;;3.50;99.90;;;;;;5058922;28;20926;-84
2022/03/28 04:44:47;;;;;;;0.30;0.10;;;3.50;99.90;;;;;;5054242;28;20530;-87
2022/03/28 04:47:14;;;;;;;0.30;0.20;;;3.50;99.90;;;;;;5047424;28;20472;-86
2022/03/28 04:49:42;;;;;;;0.30;0.20;;;3.40;99.90;;;;;;5047298;28;20522;-91
2022/03/28 04:52:09;;;;;;;0.30;0.20;;;3.40;99.90;;;;;;5045722;28;20940;-89
2022/03/28 04:54:36;;;;;;;0.40;0.20;;;3.20;99.90;;;;;;5046301;28;20476;-90
2022/03/28 04:57:05;;;;;;;0.30;0.30;;;3.20;99.90;;;;;;5048885;28;20598;-89
2022/03/28 04:59:32;;;;;;;0.30;0.10;;;3.30;99.90;;;;;;5044201;28;20989;-87
2022/03/28 05:02:00;;;;;;;0.40;0.30;;;3.50;99.90;;;;;;5049223;28;20858;-88
2022/03/28 05:04:27;;;;;;;0.30;0.20;;;3.50;99.90;;;;;;5047153;28;20972;-87
2022/03/28 05:06:55;;;;;;;0.30;0.10;;;3.60;99.90;;;;;;5046358;28;20457;-88
2022/03/28 05:09:22;;;;;;;0.30;0.10;;;3.70;99.90;;;;;;5048927;28;20440;-87
2022/03/28 05:11:49;;;;;;;0.30;0.10;;;3.70;99.90;;;;;;5049795;28;20950;-87
2022/03/28 05:14:16;;;;;;;0.30;0.20;;;3.70;99.90;;;;;;5042172;28;20488;-87
2022/03/28 05:16:43;;;;;;;0.40;0.30;;;3.80;99.90;;;;;;5046977;28;20467;-86
2022/03/28 05:19:10;;;;;;;0.30;0.20;;;3.80;99.90;;;;;;5047649;28;20540;-88
2022/03/28 05:21:37;;;;;;;0.30;0.10;;;3.80;99.90;;;;;;5057911;28;20856;-87
2022/03/28 05:24:06;;;;;;;0.30;0.20;;;3.90;99.90;;;;;;5053260;28;20954;-86
2022/03/28 05:26:33;;;;;;;0.30;0.10;;;3.90;99.90;;;;;;5051316;28;20506;-89
2022/03/28 05:29:00;;;;;;;0.30;0.20;;;4.00;99.90;;;;;;5048429;28;20460;-87
2022/03/28 05:31:27;;;;;;;0.30;0.20;;;4.00;99.90;;;;;;5049713;28;20462;-87
2022/03/28 05:33:54;;;;;;;0.30;0.20;;;3.90;99.90;;;;;;5060049;28;20500;-88
2022/03/28 05:36:22;;;;;;;1.60;1.23;;;4.10;99.90;;;;;;5062301;28;20460;-87
2022/03/28 05:38:49;;;;;;;0.87;0.87;;;4.00;99.90;;;;;;5059490;28;20458;-87
2022/03/28 05:41:18;;;;;;;7.57;3.03;;;4.10;99.90;;;;;;5046685;28;20468;-88
2022/03/28 05:43:45;;;;;;;0.30;0.20;;;4.10;99.90;;;;;;5055866;28;20456;-89
2022/03/28 05:46:12;;;;;;;0.40;0.30;;;4.10;99.90;;;;;;5054713;28;20449;-87
2022/03/28 05:48:39;;;;;;;0.30;0.20;;;4.20;99.90;;;;;;5055295;28;20452;-86
2022/03/28 05:51:05;;;;;;;0.30;0.10;;;4.20;99.90;;;;;;5047948;28;20974;-89
2022/03/28 05:53:32;;;;;;;0.30;0.20;;;4.30;99.90;;;;;;5043881;28;20502;-86
2022/03/28 05:56:03;;;;;;;0.40;0.30;;;4.30;99.90;;;;;;5036541;28;20496;-86
2022/03/28 05:58:33;;;;;;;0.30;0.10;;;4.40;99.90;;;;;;5047572;28;20540;-91
2022/03/28 06:01:00;;;;;;;0.30;0.20;;;4.50;99.90;;;;;;5042380;28;20989;-88
2022/03/28 06:03:27;;;;;;;0.30;0.10;;;4.60;99.90;;;;;;5052037;28;20545;-90
2022/03/28 06:05:54;;;;;;;0.30;0.20;;;4.60;99.90;;;;;;5049504;28;20461;-88
2022/03/28 06:08:21;;;;;;;0.30;0.10;;;4.80;99.90;;;;;;5048735;28;20511;-87
2022/03/28 06:10:48;;;;;;;0.30;0.20;;;4.90;99.90;;;;;;5044712;28;20538;-87
2022/03/28 06:13:16;;;;;;;0.40;0.30;;;5.00;99.90;;;;;;5047470;28;20978;-86
2022/03/28 06:15:45;;;;;;;2.87;0.77;;;5.20;99.90;;;;;;5049141;28;20445;-88
2022/03/28 06:18:12;;;;;;;0.90;0.57;;;5.30;99.90;;;;;;5067844;28;20540;-87
2022/03/28 06:20:39;;;;;;;0.80;0.70;;;5.40;99.90;;;;;;5058361;28;20456;-89
2022/03/28 06:23:06;;;;;;;0.30;0.20;;;5.50;99.90;;;;;;5055002;28;20507;-87
2022/03/28 06:25:33;;;;;;;0.30;0.20;;;5.60;99.90;;;;;;5050345;28;20453;-87
2022/03/28 06:28:00;;;;;;;0.30;0.20;;;5.80;99.90;;;;;;5063194;28;20461;-87
2022/03/28 06:30:28;;;;;;;0.30;0.20;;;5.90;99.90;;;;;;5053962;28;20508;-88
2022/03/28 06:32:56;;;;;;;0.40;0.40;;;6.00;99.90;;;;;;5045770;28;20524;-88
2022/03/28 06:35:23;;;;;;;0.40;0.40;;;6.00;99.90;;;;;;5047672;28;20469;-87
2022/03/28 06:37:52;;;;;;;0.30;0.20;;;6.10;99.90;;;;;;5045982;28;20453;-89
2022/03/28 06:40:19;;;;;;;0.30;0.10;;;6.30;99.90;;;;;;5055425;28;20780;-88
2022/03/28 06:42:46;;;;;;;0.30;0.20;;;6.40;99.90;;;;;;5051414;28;20469;-88
2022/03/28 06:45:14;;;;;;;0.30;0.17;;;6.30;99.90;;;;;;5044081;28;20469;-89
2022/03/28 06:47:41;;;;;;;0.40;0.20;;;6.40;99.90;;;;;;5047709;28;20473;-88
2022/03/28 06:50:10;;;;;;;0.40;0.27;;;6.50;99.90;;;;;;5051202;28;20540;-89
2022/03/28 06:52:38;;;;;;;0.60;0.60;;;6.60;99.90;;;;;;5056922;28;20472;-91
2022/03/28 06:55:06;;;;;;;0.40;0.30;;;6.70;99.90;;;;;;5046893;28;20548;-88
2022/03/28 06:57:33;;;;;;;0.40;0.20;;;6.90;99.90;;;;;;5052833;28;20546;-92
2022/03/28 07:00:00;;;;;;;0.37;0.30;;;7.00;99.90;;;;;;5048705;28;20461;-90
2022/03/28 07:02:27;;;;;;;0.30;0.10;;;7.00;99.90;;;;;;5056402;28;20512;-87
2022/03/28 07:04:54;;;;;;;1.17;1.17;;;7.10;99.90;;;;;;5044540;28;20790;-89
2022/03/28 07:07:22;;;;;;;0.40;0.37;;;7.20;99.90;;;;;;5051466;28;20940;-89
2022/03/28 07:09:49;;;;;;;0.70;0.70;;;7.40;99.90;;;;;;5048479;28;20508;-89
2022/03/28 07:12:17;;;;;;;0.33;0.20;;;7.40;99.90;;;;;;5043046;28;20473;-88
2022/03/28 07:14:45;;;;;;;0.47;0.47;;;7.50;99.90;;;;;;5047379;28;20476;-90
2022/03/28 07:17:12;;;;;;;0.37;0.30;;;7.70;99.90;;;;;;5050748;28;20451;-88
2022/03/28 07:19:39;;;;;;;0.30;0.20;;;7.70;99.90;;;;;;5050321;28;20493;-91
2022/03/28 07:22:06;;;;;;;0.33;0.17;;;7.90;99.90;;;;;;5056303;28;20857;-89
2022/03/28 07:24:34;;;;;;;0.57;0.57;;;8.00;99.90;;;;;;5065548;28;20447;-88
2022/03/28 07:27:01;;;;;;;0.30;0.20;;;8.20;99.90;;;;;;5056527;28;20548;-89
2022/03/28 07:29:28;;;;;;;0.43;0.43;;;8.10;99.90;;;;;;5062002;28;20502;-89
2022/03/28 07:31:56;;;;;;;3.30;0.90;;;8.30;99.90;;;;;;5054999;28;20451;-87
2022/03/28 07:34:33;;;;;;;0.40;0.40;;;8.50;99.90;;;;;;5044037;28;21390;-88
2022/03/28 07:37:02;;;;;;;0.60;0.60;;;8.60;99.90;;;;;;5039619;28;21076;-87
2022/03/28 07:39:29;;;;;;;0.40;0.40;;;8.80;99.90;;;;;;5040521;28;20487;-87
2022/03/28 07:41:58;;;;;;;0.30;0.20;;;8.90;99.90;;;;;;5051476;28;20467;-88
2022/03/28 07:44:25;;;;;;;0.40;0.40;;;9.10;99.90;;;;;;5049889;28;20829;-87
2022/03/28 07:46:52;;;;;;;0.30;0.20;;;9.10;99.90;;;;;;5046656;28;20502;-88
2022/03/28 07:49:19;;;;;;;0.60;0.60;;;9.30;99.90;;;;;;5045759;28;20445;-86
2022/03/28 07:51:46;;;;;;;0.70;0.50;;;9.40;99.90;;;;;;5049284;28;20460;-87
2022/03/28 07:54:14;;;;;;;0.33;0.17;;;9.40;99.90;;;;;;5037421;28;20480;-87
2022/03/28 07:56:41;;;;;;;0.40;0.40;;;9.40;99.90;;;;;;5030465;28;20448;-86
2022/03/28 07:59:09;;;;;;;0.83;0.83;;;9.40;99.90;;;;;;5032798;28;20483;-88
2022/03/28 08:01:36;;;;;;;0.50;0.50;;;9.50;99.90;;;;;;5047448;28;20459;-91
2022/03/28 08:04:03;;;;;;;0.30;0.20;;;9.90;99.90;;;;;;5050834;28;20529;-85
2022/03/28 08:06:30;;;;;;;0.40;0.30;;;9.90;99.90;;;;;;5051143;28;20836;-84
2022/03/28 08:08:57;;;;;;;0.43;0.43;;;10.10;99.90;;;;;;5050691;28;20449;-85
2022/03/28 08:11:24;;;;;;;0.30;0.20;;;10.30;99.90;;;;;;5032985;28;21146;-88
2022/03/28 08:13:51;;;;;;;0.30;0.20;;;10.40;99.90;;;;;;5047738;28;21165;-87
2022/03/28 08:16:20;;;;;;;0.40;0.30;;;10.50;99.60;;;;;;5050197;28;20453;-90
2022/03/28 08:18:47;;;;;;;0.40;0.40;;;10.60;98.80;;;;;;5052023;28;20484;-91
2022/03/28 08:21:15;;;;;;;0.30;0.20;;;10.60;99.00;;;;;;5058290;28;20986;-91
2022/03/28 08:23:42;;;;;;;1.50;0.40;;;10.70;97.80;;;;;;5079932;28;20454;-90
2022/03/28 08:26:10;;;;;;;0.30;0.23;;;10.90;98.50;;;;;;5071077;28;20453;-91
2022/03/28 08:28:37;;;;;;;2.93;0.77;;;11.00;98.40;;;;;;5072625;28;20938;-86
2022/03/28 08:31:04;;;;;;;0.40;0.30;;;11.10;97.70;;;;;;5056662;28;20595;-91
2022/03/28 08:33:32;;;;;;;0.80;0.80;;;11.00;97.70;;;;;;5051021;28;20472;-88
2022/03/28 08:36:00;;;;;;;0.40;0.30;;;11.30;97.80;;;;;;5050227;28;20450;-90
2022/03/28 08:38:27;;;;;;;0.40;0.30;;;11.60;97.70;;;;;;5046375;28;20465;-89
2022/03/28 08:40:55;;;;;;;0.40;0.20;;;11.60;96.50;;;;;;5051471;28;20455;-90
2022/03/28 08:43:24;;;;;;;0.30;0.20;;;11.60;95.80;;;;;;5050889;28;20507;-89
2022/03/28 08:45:53;;;;;;;0.30;0.20;;;11.60;95.50;;;;;;5050254;28;20452;-90
2022/03/28 08:48:21;;;;;;;0.40;0.20;;;11.50;95.50;;;;;;5052650;28;20463;-92
2022/03/28 08:50:51;;;;;;;1.03;1.03;;;11.80;95.60;;;;;;5052424;28;20453;-91
2022/03/28 08:53:18;;;;;;;0.30;0.20;;;12.00;95.60;;;;;;5051265;28;20913;-91
2022/03/28 08:55:47;;;;;;;0.73;0.60;;;12.00;95.10;;;;;;5050936;28;20487;-91
2022/03/28 08:58:16;;;;;;;0.90;0.57;;;12.20;94.30;;;;;;5051065;28;20464;-91
2022/03/28 09:00:44;;;;;;;0.40;0.30;;;12.20;93.80;;;;;;5042625;28;20456;-91
2022/03/28 09:03:11;;;;;;;1.00;1.00;;;12.30;93.80;;;;;;5050061;28;20506;-91
2022/03/28 09:05:42;;;;;;;0.50;0.40;;;12.30;93.80;;;;;;5051128;28;20580;-91
2022/03/28 09:08:12;;;;;;;0.30;0.20;;;12.30;93.40;;;;;;5049394;28;20463;-92
2022/03/28 09:10:45;;;;;;;0.90;0.67;;;12.30;94.00;;;;;;5050879;28;20514;-92
2022/03/28 09:13:16;;;;;;;0.43;0.20;;;12.50;93.20;;;;;;5054787;28;20470;-92
2022/03/28 09:15:46;;;;;;;1.27;1.17;;;12.70;93.00;;;;;;5044075;28;20453;-92
2022/03/28 09:18:22;;;;;;;1.80;1.57;;;12.80;92.80;;;;;;5053964;28;20487;-92
2022/03/28 09:20:51;;;;;;;0.80;0.67;;;13.10;92.60;;;;;;5068269;28;20812;-91
2022/03/28 09:23:36;;;;;;;0.40;0.30;;;13.10;91.30;;;;;;5048526;28;20460;-93
2022/03/28 09:26:12;;;;;;;0.80;0.80;;;13.30;92.80;;;;;;5048256;28;20449;-92
2022/03/28 09:28:48;;;;;;;0.40;0.30;;;13.30;90.80;;;;;;5038016;28;20469;-93
2022/03/28 09:31:22;;;;;;;0.40;0.30;;;13.40;91.50;;;;;;5043169;28;20480;-92
2022/03/28 09:33:55;;;;;;;0.83;0.40;;;13.50;91.50;;;;;;5046981;28;20489;-93
2022/03/28 09:36:36;;;;;;;0.80;0.80;;;13.60;91.50;;;;;;5045087;28;20662;-95
2022/03/28 09:39:06;;;;;;;0.50;0.30;;;13.80;90.60;;;;;;5036881;28;20469;-94
2022/03/28 09:41:34;;;;;;;1.10;0.40;;;13.80;90.80;;;;;;5052598;28;20490;-90
2022/03/28 09:44:02;;;;;;;0.70;0.70;;;14.10;89.20;;;;;;5044384;28;21013;-92
2022/03/28 09:46:32;;;;;;;0.40;0.40;;;14.00;87.80;;;;;;5048932;28;20801;-93
2022/03/28 09:48:59;;;;;;;1.07;0.40;;;14.00;89.90;;;;;;5039312;28;20537;-93
2022/03/28 09:51:29;;;;;;;0.60;0.40;;;14.20;89.20;;;;;;5047685;28;20903;-92
2022/03/28 09:53:58;;;;;;;0.37;0.30;;;14.30;86.90;;;;;;5043121;28;20479;-92
2022/03/28 09:56:28;;;;;;;1.07;1.07;;;14.30;86.40;;;;;;5044587;28;20658;-92
2022/03/28 09:58:59;;;;;;;0.40;0.30;;;14.50;87.20;;;;;;5047450;28;21010;-91
2022/03/28 10:01:31;;;;;;;2.40;2.20;;;14.70;86.90;;;;;;5047087;28;20525;-91
2022/03/28 10:04:03;;;;;;;0.70;0.30;;;14.70;84.00;;;;;;5048051;28;20463;-94
2022/03/28 10:06:31;;;;;;;0.30;0.20;;;14.80;86.50;;;;;;5048898;28;20456;-89
2022/03/28 10:09:00;;;;;;;1.27;0.97;;;15.00;84.80;;;;;;5056035;28;20466;-90
2022/03/28 10:11:31;;;;;;;0.40;0.30;;;15.00;83.30;;;;;;5048616;28;21030;-92
2022/03/28 10:13:59;;;;;;;0.80;0.40;;;14.90;82.70;;;;;;5051189;28;20494;-91
2022/03/28 10:16:27;;;;;;;0.87;0.87;;;15.10;86.40;;;;;;5050589;28;20957;-90
2022/03/28 10:18:54;;;;;;;1.60;1.50;;;15.20;84.60;;;;;;5042620;28;20580;-91
2022/03/28 10:21:25;;;;;;;0.40;0.30;;;15.30;82.20;;;;;;5071033;28;20482;-92
2022/03/28 10:24:05;;;;;;;0.40;0.40;;;15.30;82.10;;;;;;5062678;28;20476;-90
2022/03/28 10:26:36;;;;;;;0.40;0.30;;;15.70;83.50;;;;;;5054534;28;20461;-91
2022/03/28 10:29:09;;;;;;;1.37;0.83;;;15.60;77.50;;;;;;5049930;28;20455;-92
2022/03/28 10:31:53;;;;;;;0.40;0.30;;;15.70;79.70;;;;;;5055391;28;20440;-92
2022/03/28 10:34:46;;;;;;;1.23;0.60;;;15.90;81.40;;;;;;5057521;28;20545;-91
2022/03/28 10:37:32;;;;;;;0.90;0.90;;;15.90;77.50;;;;;;5056038;28;20969;-90
2022/03/28 10:40:19;;;;;;;0.40;0.30;;;15.90;78.70;;;;;;5054120;28;20464;-89
2022/03/28 10:42:51;;;;;;;0.50;0.40;;;16.00;77.10;;;;;;5045915;28;20501;-91
2022/03/28 10:45:21;;;;;;;0.70;0.60;;;16.10;76.10;;;;;;5049233;28;20456;-91
2022/03/28 10:47:52;;;;;;;1.27;1.23;;;16.00;73.90;;;;;;5051669;28;20529;-91
2022/03/28 10:50:25;;;;;;;0.80;0.70;;;16.00;72.90;;;;;;5048673;28;20464;-89
2022/03/28 10:53:16;;;;;;;0.73;0.73;;;16.00;73.70;;;;;;5051708;28;20480;-90
2022/03/28 10:55:49;;;;;;;0.70;0.70;;;16.20;73.80;;;;;;5055538;28;20506;-92
2022/03/28 10:58:21;;;;;;;2.60;0.93;;;16.50;72.90;;;;;;5053124;28;20968;-90
2022/03/28 11:01:23;;;;;;;2.10;2.00;;;16.60;72.20;;;;;;5059146;28;20516;-92
2022/03/28 11:03:54;;;;;;;1.27;1.10;;;16.80;72.10;;;;;;5052873;28;21223;-92
2022/03/28 11:06:49;;;;;;;0.80;0.80;;;16.90;70.00;;;;;;5050653;28;20455;-89
2022/03/28 11:09:47;;;;;;;2.13;0.90;;;16.80;70.90;;;;;;5057345;28;20464;-90
2022/03/28 11:12:16;;;;;;;0.40;0.40;;;17.00;69.30;;;;;;5050927;28;20466;-89
2022/03/28 11:14:54;;;;;;;2.10;0.60;;;17.00;70.10;;;;;;5047294;28;20868;-90
2022/03/28 11:17:23;;;;;;;0.80;0.40;;;17.10;69.30;;;;;;5046735;28;20455;-89
2022/03/28 11:20:10;;;;;;;3.83;0.60;;;17.00;67.70;;;;;;5060201;28;20484;-91
2022/03/28 11:22:50;;;;;;;0.70;0.70;;;17.10;68.50;;;;;;5053493;28;20539;-91
2022/03/28 11:25:42;;;;;;;1.00;0.33;;;17.20;69.30;;;;;;5063458;28;20459;-91
2022/03/28 11:28:15;;;;;;;1.33;0.40;;;17.30;68.70;;;;;;5068955;28;20448;-91
2022/03/28 11:30:55;;;;;;;0.30;0.20;;;17.40;68.30;;;;;;5062429;28;20503;-90
2022/03/28 11:33:28;;;;;;;1.17;0.90;;;17.50;65.00;;;;;;5064438;28;20814;-90
2022/03/28 11:35:58;;;;;;;2.30;2.10;;;17.70;64.10;;;;;;5060614;28;21455;-92
2022/03/28 11:38:27;;;;;;;0.57;0.57;;;17.90;61.60;;;;;;5051822;28;20463;-90
2022/03/28 11:40:56;;;;;;;0.50;0.50;;;18.00;60.70;;;;;;5064574;28;20814;-91
2022/03/28 11:43:31;;;;;;;0.80;0.47;;;18.10;60.00;;;;;;5047767;28;20471;-91
2022/03/28 11:46:01;;;;;;;0.60;0.57;;;17.90;58.60;;;;;;5056244;28;20472;-91
2022/03/28 11:48:29;;;;;;;2.50;0.60;;;17.90;59.70;;;;;;5061325;28;20455;-89
2022/03/28 11:50:57;;;;;;;0.63;0.60;;;17.70;58.80;;;;;;5060381;28;20456;-91
2022/03/28 11:53:24;;;;;;;0.50;0.50;;;17.80;59.20;;;;;;5065210;28;20552;-91
2022/03/28 11:55:56;;;;;;;5.03;1.50;;;17.90;60.40;;;;;;5053762;28;20876;-92
2022/03/28 11:58:31;;;;;;;0.47;0.47;;;18.00;57.50;;;;;;5053189;28;20467;-90
2022/03/28 12:01:09;;;;;;;0.43;0.40;;;18.10;56.40;;;;;;5047967;28;20460;-89
2022/03/28 12:03:38;;;;;;;0.63;0.57;;;18.30;56.80;;;;;;5050136;28;21027;-91
2022/03/28 12:06:07;;;;;;;0.80;0.63;;;18.20;57.60;;;;;;5048913;28;20441;-92
2022/03/28 12:08:35;;;;;;;0.70;0.60;;;18.40;56.80;;;;;;5048897;28;21010;-93
2022/03/28 12:11:02;;;;;;;0.43;0.43;;;18.40;56.60;;;;;;5053168;28;20594;-91
2022/03/28 12:13:30;;;;;;;0.53;0.33;;;18.40;56.60;;;;;;5050007;28;20456;-92
2022/03/28 12:15:57;;;;;;;0.50;0.50;;;18.50;55.50;;;;;;5057581;28;20505;-92
2022/03/28 12:18:31;;;;;;;0.77;0.60;;;18.30;52.90;;;;;;5059509;28;20483;-91
2022/03/28 12:20:59;;;;;;;0.90;0.90;;;18.50;53.90;;;;;;5056420;28;20470;-90
2022/03/28 12:23:28;;;;;;;0.53;0.43;;;18.50;54.60;;;;;;5049746;28;20445;-92
2022/03/28 12:26:00;;;;;;;2.00;0.50;;;18.60;51.20;;;;;;5049884;28;20970;-91
2022/03/28 12:28:29;;;;;;;2.93;1.30;;;18.50;49.40;;;;;;5042945;28;20990;-92
2022/03/28 12:30:58;;;;;;;4.90;1.13;;;18.50;52.10;;;;;;5052882;28;20466;-92
2022/03/28 12:33:29;;;;;;;0.40;0.30;;;18.60;53.50;;;;;;5043370;28;20445;-91
2022/03/28 12:36:00;;;;;;;3.73;1.00;;;18.80;52.10;;;;;;5052872;28;20473;-92
2022/03/28 12:38:30;;;;;;;4.63;1.00;;;18.90;50.30;;;;;;5053628;28;20468;-93
2022/03/28 12:41:00;;;;;;;0.77;0.77;;;18.80;48.70;;;;;;5052856;28;20544;-92
2022/03/28 12:43:29;;;;;;;1.00;1.00;;;18.90;50.60;;;;;;5052292;28;20441;-90
2022/03/28 12:46:00;;;;;;;0.77;0.77;;;18.90;48.80;;;;;;5048925;28;20462;-92
2022/03/28 12:48:40;;;;;;;0.80;0.50;;;19.00;47.70;;;;;;5050601;28;20876;-91
2022/03/28 12:51:08;;;;;;;5.40;1.00;;;19.00;47.10;;;;;;5053627;28;20472;-91
2022/03/28 12:53:37;;;;;;;2.13;0.87;;;19.00;47.90;;;;;;5054909;28;20539;-92
2022/03/28 12:56:14;;;;;;;2.03;0.60;;;19.00;45.10;;;;;;5045342;28;20487;-92
2022/03/28 12:58:43;;;;;;;0.60;0.40;;;19.00;46.20;;;;;;5042351;28;20452;-91
2022/03/28 13:01:11;;;;;;;5.80;1.27;;;18.90;46.60;;;;;;5045729;28;20462;-91
2022/03/28 13:03:40;;;;;;;2.47;0.50;;;19.00;48.00;;;;;;5049862;28;20456;-90